Time;durP1;ratioP1;P1;durP2;ratioP2;P2;SDS_P1;SDS_P2;PMS_P1;PMS_P2;Temp;Humidity;BMP_temperature;BMP_pressure;BME280_temperature;BME280_humidity;BME280_pressure;Samples;Min_cycle;Max_cycle;Signal;HPM_P1;HPM_P2
2023/04/26 00:01:29;;;;;;;0.60;0.60;;;3.20;99.90;;;;;;5036502;28;20041;-82
2023/04/26 00:03:56;;;;;;;0.68;0.68;;;3.50;99.90;;;;;;5036268;28;20373;-81
2023/04/26 00:06:22;;;;;;;0.70;0.70;;;3.30;99.90;;;;;;5036415;28;20073;-80
2023/04/26 00:08:47;;;;;;;0.60;0.60;;;3.10;99.90;;;;;;5036499;28;20238;-82
2023/04/26 00:11:13;;;;;;;0.68;0.68;;;3.10;99.90;;;;;;5036888;28;20504;-79
2023/04/26 00:13:40;;;;;;;0.60;0.60;;;3.20;99.90;;;;;;5036298;28;20132;-81
2023/04/26 00:16:06;;;;;;;1.67;1.67;;;3.70;99.90;;;;;;5036188;28;20480;-81
2023/04/26 00:18:32;;;;;;;0.70;0.70;;;3.30;99.90;;;;;;5037295;28;20068;-82
2023/04/26 00:20:58;;;;;;;0.70;0.70;;;3.30;99.90;;;;;;5036766;28;20556;-79
2023/04/26 00:23:25;;;;;;;0.50;0.50;;;3.50;99.90;;;;;;5036059;28;20092;-82
2023/04/26 00:25:50;;;;;;;0.60;0.60;;;3.40;99.90;;;;;;5035324;28;20087;-81
2023/04/26 00:28:16;;;;;;;0.50;0.50;;;3.50;99.90;;;;;;5035791;28;20053;-82
2023/04/26 00:30:46;;;;;;;0.50;0.50;;;3.60;99.90;;;;;;5052392;28;20045;-81
2023/04/26 00:33:12;;;;;;;0.55;0.55;;;3.60;99.90;;;;;;5036464;28;20057;-81
2023/04/26 00:35:38;;;;;;;1.30;1.30;;;3.60;99.90;;;;;;5035191;28;20172;-81
2023/04/26 00:38:03;;;;;;;0.60;0.60;;;4.20;99.90;;;;;;5036648;28;20049;-79
2023/04/26 00:40:29;;;;;;;0.60;0.60;;;3.60;99.90;;;;;;5036668;28;20347;-81
2023/04/26 00:42:58;;;;;;;1.02;1.02;;;3.50;99.90;;;;;;5035372;28;20079;-81
2023/04/26 00:45:25;;;;;;;0.55;0.55;;;4.20;99.90;;;;;;5036268;28;20041;-81
2023/04/26 00:47:51;;;;;;;;;;;3.40;99.90;;;;;;5035921;28;20053;-81
2023/04/26 00:50:17;;;;;;;0.70;0.70;;;3.40;99.90;;;;;;5035483;28;19944;-82
2023/04/26 00:52:44;;;;;;;0.60;0.60;;;3.30;99.90;;;;;;5036267;28;20085;-81
2023/04/26 00:55:10;;;;;;;0.70;0.70;;;3.60;99.90;;;;;;5035335;28;20049;-81
2023/04/26 00:57:36;;;;;;;0.80;0.80;;;4.00;99.90;;;;;;5035236;28;20122;-81
2023/04/26 01:00:01;;;;;;;0.60;0.60;;;3.30;99.90;;;;;;5036649;28;20045;-82
2023/04/26 01:02:27;;;;;;;0.70;0.70;;;3.30;99.90;;;;;;5035472;28;20126;-81
2023/04/26 01:04:53;;;;;;;0.60;0.60;;;3.20;99.90;;;;;;5035709;28;20160;-81
2023/04/26 01:07:19;;;;;;;0.60;0.60;;;3.20;99.90;;;;;;5035347;28;20049;-80
2023/04/26 01:09:46;;;;;;;0.70;0.70;;;3.50;99.90;;;;;;5035359;28;20060;-79
2023/04/26 01:12:13;;;;;;;0.60;0.60;;;4.00;99.90;;;;;;5035074;28;20057;-81
2023/04/26 01:14:39;;;;;;;0.50;0.50;;;3.30;99.90;;;;;;5034727;28;20048;-81
2023/04/26 01:17:04;;;;;;;0.50;0.50;;;3.30;99.90;;;;;;5035752;28;20037;-80
2023/04/26 01:19:31;;;;;;;0.70;0.70;;;3.20;99.90;;;;;;5034187;28;20046;-80
2023/04/26 01:21:57;;;;;;;0.52;0.52;;;3.30;99.90;;;;;;5035258;28;20053;-81
2023/04/26 01:24:22;;;;;;;0.75;0.75;;;3.30;99.90;;;;;;5034230;28;20484;-81
2023/04/26 01:26:48;;;;;;;0.55;0.55;;;3.90;99.90;;;;;;5035855;28;20136;-81
2023/04/26 01:29:16;;;;;;;0.47;0.47;;;4.00;99.90;;;;;;5035716;28;20478;-81
2023/04/26 01:31:42;;;;;;;0.80;0.80;;;4.10;99.90;;;;;;5034544;28;20057;-81
2023/04/26 01:34:08;;;;;;;0.68;0.68;;;3.80;99.90;;;;;;5035046;28;20059;-81
2023/04/26 01:36:33;;;;;;;1.70;1.63;;;3.60;99.90;;;;;;5050690;28;20049;-81
2023/04/26 01:39:00;;;;;;;0.70;0.70;;;3.60;99.90;;;;;;5034275;28;20045;-80
2023/04/26 01:41:25;;;;;;;;;;;3.60;99.90;;;;;;5034355;28;20056;-82
2023/04/26 01:43:51;;;;;;;0.60;0.60;;;3.50;99.90;;;;;;5033885;28;19921;-81
2023/04/26 01:46:17;;;;;;;;;;;3.40;99.90;;;;;;5035890;28;20132;-82
2023/04/26 01:48:43;;;;;;;0.52;0.52;;;3.40;99.90;;;;;;5036316;28;19975;-81
2023/04/26 01:51:08;;;;;;;0.55;0.55;;;3.70;99.90;;;;;;5034576;28;20458;-80
2023/04/26 01:53:34;;;;;;;0.60;0.60;;;3.40;99.90;;;;;;5034490;28;20053;-81
2023/04/26 01:56:01;;;;;;;0.70;0.70;;;3.40;99.90;;;;;;5034921;28;20112;-81
2023/04/26 01:58:28;;;;;;;0.60;0.60;;;3.50;99.90;;;;;;5034820;28;20072;-80
2023/04/26 02:00:54;;;;;;;0.60;0.60;;;3.50;99.90;;;;;;5035092;28;20121;-81
2023/04/26 02:03:20;;;;;;;0.70;0.70;;;3.50;99.90;;;;;;5035016;28;20080;-80
2023/04/26 02:05:45;;;;;;;0.60;0.60;;;3.80;99.90;;;;;;5035178;28;20054;-81
2023/04/26 02:08:11;;;;;;;0.55;0.55;;;3.50;99.90;;;;;;5036922;28;20041;-79
2023/04/26 02:10:37;;;;;;;0.57;0.57;;;3.40;99.90;;;;;;5036805;28;20388;-81
2023/04/26 02:13:03;;;;;;;0.70;0.70;;;3.40;99.90;;;;;;5019574;28;20513;-80
2023/04/26 02:15:30;;;;;;;0.60;0.60;;;4.00;99.90;;;;;;5019512;28;20472;-82
2023/04/26 02:17:55;;;;;;;0.70;0.70;;;4.20;99.90;;;;;;5034564;28;20476;-80
2023/04/26 02:20:21;;;;;;;0.73;0.73;;;3.30;99.90;;;;;;5034598;28;20060;-81
2023/04/26 02:22:47;;;;;;;0.70;0.70;;;3.20;99.90;;;;;;5033866;28;20072;-81
2023/04/26 02:25:12;;;;;;;0.80;0.80;;;3.20;99.90;;;;;;5032844;28;20537;-78
2023/04/26 02:27:38;;;;;;;0.70;0.70;;;3.20;99.90;;;;;;5034816;28;20484;-81
2023/04/26 02:30:05;;;;;;;0.70;0.70;;;3.90;99.90;;;;;;5034138;28;20095;-81
2023/04/26 02:32:30;;;;;;;0.70;0.70;;;3.20;99.90;;;;;;5049973;28;20128;-81
2023/04/26 02:34:56;;;;;;;1.65;1.65;;;3.30;99.90;;;;;;5033493;28;20089;-80
2023/04/26 02:37:22;;;;;;;0.63;0.63;;;3.40;99.90;;;;;;5034379;28;20566;-80
2023/04/26 02:39:51;;;;;;;4.78;4.43;;;3.20;99.90;;;;;;5049918;28;20064;-81
2023/04/26 02:42:16;;;;;;;0.60;0.60;;;3.20;99.90;;;;;;5017211;28;20064;-81
2023/04/26 02:44:42;;;;;;;0.70;0.70;;;3.20;99.90;;;;;;5033267;28;20041;-79
2023/04/26 02:47:08;;;;;;;0.65;0.65;;;3.20;99.90;;;;;;5033941;28;20046;-80
2023/04/26 02:49:34;;;;;;;0.70;0.70;;;3.10;99.90;;;;;;5034134;28;20050;-81
2023/04/26 02:52:00;;;;;;;0.60;0.60;;;3.10;99.90;;;;;;5034537;28;20088;-82
2023/04/26 02:54:25;;;;;;;0.80;0.80;;;3.10;99.90;;;;;;5033934;28;20046;-82
2023/04/26 02:56:51;;;;;;;0.70;0.70;;;3.10;99.90;;;;;;5049845;28;20129;-81
2023/04/26 02:59:17;;;;;;;0.60;0.60;;;3.10;99.90;;;;;;5034772;28;20045;-79
2023/04/26 03:01:42;;;;;;;0.70;0.70;;;3.90;99.90;;;;;;5033503;28;20107;-81
2023/04/26 03:04:08;;;;;;;0.80;0.80;;;3.30;99.90;;;;;;5034289;28;20053;-80
2023/04/26 03:06:34;;;;;;;0.60;0.60;;;3.30;99.90;;;;;;5033573;28;20045;-81
2023/04/26 03:09:00;;;;;;;0.70;0.70;;;3.30;99.90;;;;;;5049544;28;20124;-81
2023/04/26 03:11:26;;;;;;;0.63;0.63;;;3.20;99.90;;;;;;5033680;28;20085;-82
2023/04/26 03:13:51;;;;;;;0.52;0.52;;;3.30;99.90;;;;;;5033129;28;20283;-81
2023/04/26 03:16:22;;;;;;;47.05;8.05;;;3.40;99.90;;;;;;5033397;28;20136;-80
2023/04/26 03:18:49;;;;;;;0.73;0.73;;;3.50;99.90;;;;;;5036996;28;20504;-80
2023/04/26 03:21:14;;;;;;;0.60;0.60;;;3.50;99.90;;;;;;5037913;28;20378;-81
2023/04/26 03:23:40;;;;;;;0.98;0.98;;;3.60;99.90;;;;;;5037875;28;20052;-82
2023/04/26 03:26:06;;;;;;;0.57;0.57;;;3.60;99.90;;;;;;5037289;28;20060;-81
2023/04/26 03:28:31;;;;;;;0.60;0.60;;;3.60;99.90;;;;;;5037251;28;20057;-82
2023/04/26 03:30:57;;;;;;;0.68;0.68;;;3.60;99.90;;;;;;5036774;28;20077;-79
2023/04/26 03:33:23;;;;;;;0.70;0.70;;;3.50;99.90;;;;;;5019608;28;20055;-81
2023/04/26 03:35:50;;;;;;;1.35;1.35;;;3.50;99.90;;;;;;5037568;28;20053;-80
2023/04/26 03:38:16;;;;;;;0.60;0.60;;;4.30;99.90;;;;;;5036616;28;20111;-81
2023/04/26 03:40:42;;;;;;;0.70;0.70;;;3.30;99.90;;;;;;5020377;28;20465;-81
2023/04/26 03:43:07;;;;;;;0.73;0.73;;;3.30;99.90;;;;;;5037227;28;20050;-81
2023/04/26 03:45:33;;;;;;;0.82;0.82;;;3.20;99.90;;;;;;5037453;28;20081;-80
2023/04/26 03:47:59;;;;;;;0.73;0.73;;;3.10;99.90;;;;;;5036847;28;20057;-81
2023/04/26 03:50:25;;;;;;;0.70;0.70;;;4.20;99.90;;;;;;5037833;28;20103;-81
2023/04/26 03:52:50;;;;;;;0.68;0.68;;;3.10;99.90;;;;;;5037581;28;20053;-79
2023/04/26 03:55:16;;;;;;;0.60;0.60;;;3.10;99.90;;;;;;5036119;28;20056;-82
2023/04/26 03:57:42;;;;;;;0.75;0.75;;;3.00;99.90;;;;;;5037395;28;20430;-81
2023/04/26 04:00:13;;;;;;;0.60;0.60;;;3.30;99.90;;;;;;5037445;28;20080;-81
2023/04/26 04:02:39;;;;;;;0.82;0.82;;;3.10;99.90;;;;;;5035836;28;20485;-82
2023/04/26 04:05:04;;;;;;;;;;;3.20;99.90;;;;;;5036193;28;20038;-81
2023/04/26 04:07:31;;;;;;;0.60;0.60;;;3.30;99.90;;;;;;5052746;28;19964;-82
2023/04/26 04:09:58;;;;;;;0.80;0.80;;;3.70;99.90;;;;;;5037162;28;20049;-82
2023/04/26 04:12:24;;;;;;;0.70;0.70;;;3.50;99.90;;;;;;5035712;28;20057;-80
2023/04/26 04:14:51;;;;;;;0.70;0.70;;;3.50;99.90;;;;;;5036001;28;20183;-80
2023/04/26 04:17:17;;;;;;;0.68;0.68;;;3.50;99.90;;;;;;5035797;28;20469;-79
2023/04/26 04:19:44;;;;;;;0.70;0.70;;;4.30;99.90;;;;;;5035695;28;20053;-81
2023/04/26 04:22:10;;;;;;;0.55;0.55;;;3.50;99.90;;;;;;5019517;28;20093;-82
2023/04/26 04:24:36;;;;;;;0.50;0.50;;;3.60;99.90;;;;;;5018869;28;20049;-81
2023/04/26 04:27:02;;;;;;;0.50;0.50;;;3.60;99.90;;;;;;5035316;28;20096;-81
2023/04/26 04:29:28;;;;;;;0.77;0.77;;;3.60;99.90;;;;;;5035205;28;20046;-80
2023/04/26 04:31:55;;;;;;;0.68;0.68;;;3.60;99.90;;;;;;5036552;28;20067;-81
2023/04/26 04:34:22;;;;;;;0.50;0.50;;;3.60;99.90;;;;;;5052174;28;20053;-80
2023/04/26 04:36:49;;;;;;;0.70;0.70;;;3.50;99.90;;;;;;5035732;28;20053;-82
2023/04/26 04:39:20;;;;;;;0.60;0.60;;;3.50;99.90;;;;;;5036476;28;20099;-80
2023/04/26 04:41:47;;;;;;;0.60;0.60;;;3.70;99.90;;;;;;5036391;28;20053;-80
2023/04/26 04:44:16;;;;;;;0.60;0.60;;;3.60;99.90;;;;;;5035001;28;20053;-80
2023/04/26 04:46:43;;;;;;;0.50;0.50;;;4.20;99.90;;;;;;5035404;28;20057;-82
2023/04/26 04:49:11;;;;;;;0.60;0.60;;;3.80;99.90;;;;;;5052205;28;20060;-81
2023/04/26 04:51:37;;;;;;;0.60;0.60;;;4.30;99.90;;;;;;5035263;28;20089;-82
2023/04/26 04:54:13;;;;;;;0.60;0.60;;;3.90;99.90;;;;;;5018858;28;20128;-82
2023/04/26 04:56:39;;;;;;;0.82;0.82;;;4.10;99.90;;;;;;5035052;28;20084;-80
2023/04/26 04:59:07;;;;;;;0.60;0.60;;;4.00;99.90;;;;;;5036050;28;20495;-82
2023/04/26 05:01:35;;;;;;;0.90;0.90;;;4.10;99.90;;;;;;5036120;28;20061;-80
2023/04/26 05:04:01;;;;;;;0.50;0.50;;;4.10;99.90;;;;;;5051807;28;20060;-81
2023/04/26 05:06:27;;;;;;;0.70;0.70;;;4.10;99.90;;;;;;5036963;28;20041;-80
2023/04/26 05:08:53;;;;;;;0.63;0.63;;;4.40;99.90;;;;;;5051538;28;20135;-79
2023/04/26 05:11:19;;;;;;;0.68;0.68;;;4.40;99.90;;;;;;5017907;28;20384;-82
2023/04/26 05:13:45;;;;;;;;;;;5.70;99.90;;;;;;5036415;28;20038;-82
2023/04/26 05:16:13;;;;;;;0.60;0.60;;;4.20;99.90;;;;;;5035005;28;19987;-80
2023/04/26 05:18:38;;;;;;;0.60;0.60;;;4.20;99.90;;;;;;5035085;28;20056;-80
2023/04/26 05:21:04;;;;;;;0.45;0.45;;;4.20;99.90;;;;;;5034726;28;20045;-81
2023/04/26 05:23:30;;;;;;;0.70;0.70;;;4.20;99.90;;;;;;5036121;28;20042;-81
2023/04/26 05:26:00;;;;;;;0.60;0.60;;;4.20;99.90;;;;;;5035696;28;20184;-82
2023/04/26 05:28:25;;;;;;;0.60;0.60;;;4.10;99.90;;;;;;5034098;28;20065;-81
2023/04/26 05:30:51;;;;;;;0.60;0.60;;;4.10;99.90;;;;;;5034344;28;20461;-81
2023/04/26 05:33:17;;;;;;;0.63;0.63;;;4.40;99.90;;;;;;5034206;28;20057;-81
2023/04/26 05:35:42;;;;;;;0.70;0.70;;;4.00;99.90;;;;;;5034927;28;20141;-80
2023/04/26 05:38:08;;;;;;;0.60;0.60;;;4.10;99.90;;;;;;5035147;28;20349;-81
2023/04/26 05:40:34;;;;;;;1.33;1.05;;;5.30;99.90;;;;;;5035367;28;20144;-81
2023/04/26 05:42:59;;;;;;;0.50;0.50;;;4.20;99.90;;;;;;5033597;28;20053;-82
2023/04/26 05:45:25;;;;;;;0.70;0.70;;;4.30;99.90;;;;;;5034312;28;20129;-79
2023/04/26 05:47:51;;;;;;;0.63;0.63;;;4.40;99.90;;;;;;5035145;28;20056;-81
2023/04/26 05:50:17;;;;;;;0.50;0.50;;;4.60;99.90;;;;;;5034280;28;20129;-81
2023/04/26 05:52:42;;;;;;;0.95;0.95;;;4.80;99.90;;;;;;5035015;28;20527;-81
2023/04/26 05:55:09;;;;;;;0.60;0.60;;;4.90;99.90;;;;;;5034557;28;20046;-81
2023/04/26 05:57:34;;;;;;;0.60;0.60;;;5.00;99.90;;;;;;5050309;28;20207;-80
2023/04/26 06:00:00;;;;;;;0.70;0.70;;;5.00;99.90;;;;;;5035217;28;20180;-81
2023/04/26 06:02:26;;;;;;;0.70;0.70;;;5.00;99.90;;;;;;5035207;28;20405;-81
2023/04/26 06:04:52;;;;;;;0.65;0.65;;;5.00;99.90;;;;;;5033529;28;20060;-82
2023/04/26 06:07:18;;;;;;;0.52;0.52;;;5.00;99.90;;;;;;5033961;28;20058;-80
2023/04/26 06:09:44;;;;;;;0.50;0.50;;;5.00;99.90;;;;;;5034961;28;20045;-80
2023/04/26 06:12:10;;;;;;;0.52;0.52;;;5.00;99.90;;;;;;5034675;28;20053;-82
2023/04/26 06:14:35;;;;;;;0.60;0.60;;;5.10;99.90;;;;;;5017335;28;20079;-81
2023/04/26 06:17:02;;;;;;;0.70;0.70;;;5.10;99.90;;;;;;5033926;28;20087;-81
2023/04/26 06:19:27;;;;;;;0.50;0.50;;;5.20;99.90;;;;;;5033974;28;20083;-80
2023/04/26 06:21:54;;;;;;;0.57;0.57;;;5.40;99.90;;;;;;5033833;28;20049;-82
2023/04/26 06:24:20;;;;;;;0.50;0.50;;;5.60;99.90;;;;;;5034828;28;20041;-82
2023/04/26 06:26:46;;;;;;;0.60;0.60;;;5.90;99.90;;;;;;5034746;28;20058;-82
2023/04/26 06:29:11;;;;;;;0.60;0.60;;;6.10;99.90;;;;;;5050796;28;20362;-81
2023/04/26 06:31:37;;;;;;;0.50;0.50;;;6.20;99.90;;;;;;5034960;28;20041;-82
2023/04/26 06:34:03;;;;;;;0.70;0.70;;;6.40;99.90;;;;;;5050786;28;20037;-81
2023/04/26 06:36:30;;;;;;;0.65;0.65;;;6.40;99.90;;;;;;5016593;28;20448;-79
2023/04/26 06:38:55;;;;;;;0.60;0.60;;;6.50;99.90;;;;;;5032295;28;20050;-81
2023/04/26 06:41:21;;;;;;;1.08;1.02;;;6.40;99.90;;;;;;5033120;28;20546;-80
2023/04/26 06:43:47;;;;;;;0.60;0.60;;;6.40;99.90;;;;;;5049209;28;20076;-81
2023/04/26 06:46:13;;;;;;;;;;;6.50;99.90;;;;;;5033081;28;20057;-81
2023/04/26 06:48:39;;;;;;;0.57;0.57;;;6.40;99.90;;;;;;5049328;28;19925;-81
2023/04/26 06:51:05;;;;;;;;;;;6.40;99.90;;;;;;5034437;28;20049;-81
2023/04/26 06:53:31;;;;;;;0.50;0.50;;;6.40;99.90;;;;;;5035627;28;19921;-81
2023/04/26 06:55:57;;;;;;;0.60;0.60;;;6.50;99.90;;;;;;5037955;28;20488;-83
2023/04/26 06:58:23;;;;;;;0.32;0.32;;;6.60;99.90;;;;;;5038096;28;20069;-82
2023/04/26 07:00:49;;;;;;;0.60;0.60;;;6.90;99.90;;;;;;5037131;28;20056;-82
2023/04/26 07:03:15;;;;;;;0.60;0.60;;;7.00;99.90;;;;;;5037670;28;20049;-81
2023/04/26 07:05:41;;;;;;;0.60;0.60;;;7.00;99.90;;;;;;5036705;28;20050;-81
2023/04/26 07:08:07;;;;;;;0.43;0.43;;;6.90;99.90;;;;;;5036620;28;20103;-82
2023/04/26 07:10:32;;;;;;;0.60;0.60;;;6.80;99.90;;;;;;5036474;28;20400;-82
2023/04/26 07:12:59;;;;;;;0.80;0.80;;;6.80;99.90;;;;;;5037484;28;20480;-83
2023/04/26 07:15:24;;;;;;;0.80;0.80;;;6.80;99.90;;;;;;5037524;28;20046;-81
2023/04/26 07:17:50;;;;;;;0.50;0.50;;;6.70;99.90;;;;;;5053295;28;20068;-82
2023/04/26 07:20:19;;;;;;;0.50;0.50;;;6.70;99.90;;;;;;5037745;28;20042;-80
2023/04/26 07:22:45;;;;;;;0.70;0.70;;;6.60;99.90;;;;;;5036795;28;20049;-82
2023/04/26 07:25:11;;;;;;;0.57;0.57;;;6.60;99.90;;;;;;5037594;28;20045;-82
2023/04/26 07:27:37;;;;;;;0.50;0.50;;;6.70;99.90;;;;;;5052519;28;20052;-79
2023/04/26 07:30:04;;;;;;;0.90;0.90;;;6.80;99.90;;;;;;5037326;28;20049;-83
2023/04/26 07:32:30;;;;;;;0.40;0.40;;;7.10;99.90;;;;;;5036621;28;20406;-82
2023/04/26 07:34:56;;;;;;;0.50;0.50;;;7.20;99.90;;;;;;5037164;28;20038;-81
2023/04/26 07:37:22;;;;;;;1.20;1.20;;;7.30;99.90;;;;;;5037461;28;20045;-81
2023/04/26 07:39:47;;;;;;;0.40;0.40;;;7.60;99.90;;;;;;5020487;28;20497;-82
2023/04/26 07:42:13;;;;;;;1.40;1.30;;;7.80;99.90;;;;;;5037807;28;20068;-82
2023/04/26 07:44:39;;;;;;;0.50;0.50;;;7.90;99.90;;;;;;5035069;28;20080;-79
2023/04/26 07:47:11;;;;;;;0.60;0.60;;;8.10;99.90;;;;;;5037063;28;20049;-82
2023/04/26 07:49:36;;;;;;;0.50;0.50;;;8.10;99.90;;;;;;5036415;28;20122;-82
2023/04/26 07:52:02;;;;;;;0.50;0.50;;;8.10;99.90;;;;;;5019722;28;20053;-82
2023/04/26 07:54:28;;;;;;;0.80;0.77;;;7.30;99.90;;;;;;5037820;28;20041;-81
2023/04/26 07:56:54;;;;;;;0.45;0.45;;;8.10;99.90;;;;;;5054621;28;20084;-82
2023/04/26 07:59:20;;;;;;;0.57;0.57;;;8.10;99.90;;;;;;5038239;28;20079;-83
2023/04/26 08:01:46;;;;;;;0.50;0.50;;;8.20;99.90;;;;;;5038083;28;20054;-81
2023/04/26 08:04:11;;;;;;;0.93;0.93;;;8.40;99.90;;;;;;5038035;28;20049;-83
2023/04/26 08:06:38;;;;;;;0.50;0.50;;;8.60;99.90;;;;;;5037423;28;20068;-82
2023/04/26 08:09:04;;;;;;;1.17;1.13;;;8.90;99.90;;;;;;5037790;28;20135;-81
2023/04/26 08:11:29;;;;;;;0.65;0.65;;;8.80;99.90;;;;;;5041167;28;20045;-86
2023/04/26 08:13:55;;;;;;;0.50;0.50;;;8.60;99.90;;;;;;5043084;28;20150;-83
2023/04/26 08:16:21;;;;;;;0.80;0.80;;;8.40;99.90;;;;;;5045384;28;20511;-86
2023/04/26 08:18:47;;;;;;;0.68;0.68;;;8.30;99.90;;;;;;5037029;28;20077;-83
2023/04/26 08:21:12;;;;;;;0.40;0.40;;;8.20;99.90;;;;;;5036618;28;20140;-87
2023/04/26 08:23:38;;;;;;;0.60;0.60;;;8.30;99.90;;;;;;5036906;28;20061;-85
2023/04/26 08:26:05;;;;;;;0.50;0.50;;;8.30;99.90;;;;;;5038805;28;20045;-82
2023/04/26 08:28:30;;;;;;;0.50;0.50;;;8.40;99.90;;;;;;5036932;28;20116;-86
2023/04/26 08:30:57;;;;;;;0.60;0.60;;;8.40;99.90;;;;;;5037465;28;20132;-87
2023/04/26 08:33:22;;;;;;;0.57;0.57;;;8.30;99.90;;;;;;5037751;28;20093;-88
2023/04/26 08:35:48;;;;;;;0.50;0.50;;;8.40;99.90;;;;;;5037640;28;20049;-89
2023/04/26 08:38:14;;;;;;;0.60;0.60;;;8.50;99.90;;;;;;5036306;28;20049;-88
2023/04/26 08:40:42;;;;;;;0.90;0.90;;;8.60;99.90;;;;;;5036530;28;20123;-87
2023/04/26 08:43:09;;;;;;;0.80;0.80;;;8.80;99.90;;;;;;5037910;28;20057;-88
2023/04/26 08:45:39;;;;;;;0.40;0.40;;;9.00;99.90;;;;;;5037527;28;20045;-88
2023/04/26 08:48:12;;;;;;;0.60;0.60;;;9.10;99.90;;;;;;5035804;28;20049;-87
2023/04/26 08:50:39;;;;;;;0.43;0.43;;;8.80;99.90;;;;;;5036545;28;20045;-87
2023/04/26 08:53:05;;;;;;;0.70;0.70;;;8.50;99.90;;;;;;5036152;28;20053;-88
2023/04/26 08:55:34;;;;;;;0.60;0.60;;;8.30;99.90;;;;;;5035518;28;20042;-87
2023/04/26 08:58:00;;;;;;;0.43;0.43;;;8.20;99.90;;;;;;5036356;28;20056;-82
2023/04/26 09:00:27;;;;;;;0.50;0.50;;;8.10;99.90;;;;;;5053580;28;20045;-83
2023/04/26 09:02:52;;;;;;;0.45;0.45;;;8.10;99.90;;;;;;5035854;28;20057;-85
2023/04/26 09:05:25;;;;;;;0.50;0.43;;;8.10;99.90;;;;;;5035776;28;20057;-87
2023/04/26 09:07:56;;;;;;;0.50;0.50;;;8.30;99.90;;;;;;5036989;28;20073;-88
2023/04/26 09:10:22;;;;;;;0.32;0.32;;;8.50;99.90;;;;;;5052794;28;20056;-87
2023/04/26 09:12:52;;;;;;;0.50;0.50;;;8.60;99.90;;;;;;5018920;28;20084;-80
2023/04/26 09:15:20;;;;;;;0.50;0.50;;;8.60;99.90;;;;;;5018388;28;20093;-83
2023/04/26 09:17:48;;;;;;;0.50;0.50;;;8.70;99.90;;;;;;5052061;28;20049;-80
2023/04/26 09:20:27;;;;;;;0.60;0.60;;;8.70;99.90;;;;;;5036463;28;20128;-86
2023/04/26 09:23:05;;;;;;;0.50;0.50;;;8.70;99.90;;;;;;5035180;28;20075;-85
2023/04/26 09:25:31;;;;;;;0.40;0.40;;;8.60;99.90;;;;;;5033511;28;20041;-83
2023/04/26 09:27:58;;;;;;;0.45;0.45;;;8.60;99.90;;;;;;5051000;28;20057;-85
2023/04/26 09:30:25;;;;;;;0.43;0.43;;;8.50;99.90;;;;;;5051763;28;20068;-85
2023/04/26 09:33:02;;;;;;;0.50;0.50;;;8.30;99.90;;;;;;5035549;28;20053;-87
2023/04/26 09:35:32;;;;;;;0.43;0.43;;;8.20;99.90;;;;;;5051302;28;20120;-86
2023/04/26 09:38:08;;;;;;;0.52;0.52;;;8.20;99.90;;;;;;5018133;28;20102;-85
2023/04/26 09:40:35;;;;;;;0.50;0.50;;;8.20;99.90;;;;;;5034943;28;20140;-86
2023/04/26 09:43:03;;;;;;;2.05;1.95;;;8.40;99.90;;;;;;5052086;28;20412;-86
2023/04/26 09:45:31;;;;;;;0.47;0.47;;;8.60;99.90;;;;;;5035593;28;20049;-86
2023/04/26 09:48:15;;;;;;;0.35;0.35;;;8.70;99.90;;;;;;5035531;28;20049;-85
2023/04/26 09:50:43;;;;;;;0.50;0.50;;;8.80;99.90;;;;;;5019312;28;20103;-82
2023/04/26 09:53:09;;;;;;;0.40;0.40;;;9.00;99.90;;;;;;5051348;28;20060;-84
2023/04/26 09:55:35;;;;;;;0.60;0.60;;;9.10;99.90;;;;;;5035126;28;20080;-87
2023/04/26 09:58:08;;;;;;;0.50;0.50;;;9.10;99.90;;;;;;5051892;28;20053;-85
2023/04/26 10:00:36;;;;;;;0.32;0.32;;;9.20;99.90;;;;;;5035246;28;20079;-86
2023/04/26 10:03:03;;;;;;;0.50;0.50;;;9.40;99.90;;;;;;5036538;28;20033;-88
2023/04/26 10:05:30;;;;;;;0.70;0.70;;;9.60;99.90;;;;;;5035628;28;20473;-87
2023/04/26 10:07:56;;;;;;;0.70;0.70;;;9.70;99.90;;;;;;5035387;28;20053;-84
2023/04/26 10:10:22;;;;;;;0.50;0.50;;;9.80;99.90;;;;;;5036232;28;20196;-81
2023/04/26 10:12:48;;;;;;;0.52;0.52;;;9.70;99.90;;;;;;5034396;28;20534;-85
2023/04/26 10:15:14;;;;;;;0.45;0.45;;;9.60;99.90;;;;;;5034991;28;20520;-86
2023/04/26 10:17:40;;;;;;;;;;;9.60;99.90;;;;;;5034765;28;20080;-85
2023/04/26 10:20:10;;;;;;;1.30;0.80;;;9.70;99.90;;;;;;5033956;28;19921;-83
2023/04/26 10:22:43;;;;;;;0.40;0.40;;;9.80;99.90;;;;;;5034674;28;20156;-84
2023/04/26 10:25:09;;;;;;;0.50;0.50;;;9.80;99.90;;;;;;5035217;28;20033;-87
2023/04/26 10:27:42;;;;;;;0.47;0.47;;;9.70;99.90;;;;;;5033369;28;20469;-84
2023/04/26 10:30:11;;;;;;;0.50;0.50;;;9.80;99.90;;;;;;5033921;28;20053;-86
2023/04/26 10:32:52;;;;;;;0.50;0.50;;;10.00;99.90;;;;;;5034228;28;20053;-84
2023/04/26 10:35:18;;;;;;;0.40;0.40;;;10.20;99.90;;;;;;5035512;28;20073;-86
2023/04/26 10:37:59;;;;;;;0.40;0.40;;;10.30;99.90;;;;;;5035806;28;20049;-83
2023/04/26 10:40:37;;;;;;;0.43;0.43;;;10.10;99.90;;;;;;5034726;28;20079;-83
2023/04/26 10:43:13;;;;;;;0.50;0.50;;;9.70;99.90;;;;;;5036123;28;20049;-87
2023/04/26 10:45:40;;;;;;;0.60;0.60;;;9.30;99.90;;;;;;5035812;28;20042;-85
2023/04/26 10:48:18;;;;;;;0.50;0.50;;;9.00;99.90;;;;;;5036122;28;20072;-88
2023/04/26 10:51:07;;;;;;;0.50;0.50;;;8.90;99.90;;;;;;5036518;28;20044;-84
2023/04/26 10:53:45;;;;;;;0.50;0.50;;;8.80;99.90;;;;;;5049123;28;20053;-85
2023/04/26 10:56:26;;;;;;;3.65;3.38;;;8.80;99.90;;;;;;5051106;28;20029;-83
2023/04/26 10:59:12;;;;;;;0.45;0.45;;;8.80;99.90;;;;;;5049173;28;20484;-82
2023/04/26 11:01:41;;;;;;;3.72;1.20;;;8.80;99.90;;;;;;5049797;28;20079;-85
2023/04/26 11:04:09;;;;;;;0.50;0.50;;;8.80;99.90;;;;;;5045594;28;20517;-86
2023/04/26 11:07:07;;;;;;;0.40;0.40;;;8.90;99.90;;;;;;5017086;28;20125;-86
2023/04/26 11:09:38;;;;;;;0.50;0.50;;;9.10;99.90;;;;;;4989674;28;20139;-87
2023/04/26 11:12:12;;;;;;;0.60;0.60;;;9.10;99.90;;;;;;5033950;28;20449;-87
2023/04/26 11:14:38;;;;;;;0.60;0.60;;;9.30;99.90;;;;;;5034286;28;20041;-87
2023/04/26 11:17:05;;;;;;;0.50;0.50;;;9.50;99.90;;;;;;5034493;28;20158;-87
2023/04/26 11:19:32;;;;;;;0.52;0.52;;;9.80;99.90;;;;;;5035388;28;20061;-86
2023/04/26 11:22:02;;;;;;;0.50;0.50;;;10.10;99.90;;;;;;5034485;28;20053;-82
2023/04/26 11:24:32;;;;;;;0.60;0.60;;;10.30;99.90;;;;;;5035008;28;20081;-86
2023/04/26 11:26:58;;;;;;;0.30;0.30;;;10.60;99.90;;;;;;5033430;28;20491;-82
2023/04/26 11:29:24;;;;;;;;;;;10.60;99.90;;;;;;5034184;28;20049;-83
2023/04/26 11:31:54;;;;;;;0.40;0.40;;;10.60;99.90;;;;;;5033289;28;19921;-84
2023/04/26 11:34:37;;;;;;;0.35;0.35;;;10.50;99.90;;;;;;5033296;28;20045;-85
2023/04/26 11:37:04;;;;;;;0.50;0.50;;;10.40;99.90;;;;;;5034115;28;20100;-85
2023/04/26 11:39:33;;;;;;;0.40;0.40;;;10.50;99.90;;;;;;5037743;28;20361;-85
2023/04/26 11:42:09;;;;;;;0.40;0.40;;;10.60;99.90;;;;;;5037004;28;20372;-81
2023/04/26 11:44:36;;;;;;;;;;;10.80;99.90;;;;;;5037753;28;20124;-82
2023/04/26 11:47:05;;;;;;;0.50;0.50;;;10.90;99.90;;;;;;5035792;28;19968;-86
2023/04/26 11:49:31;;;;;;;0.30;0.30;;;10.90;99.90;;;;;;5035517;28;20053;-82
2023/04/26 11:51:58;;;;;;;2.45;1.50;;;10.70;99.90;;;;;;5020697;28;20076;-87
2023/04/26 11:54:27;;;;;;;0.40;0.40;;;10.50;99.90;;;;;;5053483;28;20084;-84
2023/04/26 11:56:53;;;;;;;0.40;0.40;;;10.30;99.90;;;;;;5037558;28;20132;-88
2023/04/26 11:59:23;;;;;;;0.32;0.32;;;10.30;99.90;;;;;;5036987;28;20056;-88
2023/04/26 12:01:51;;;;;;;0.70;0.70;;;10.30;99.90;;;;;;5037033;28;20049;-85
2023/04/26 12:04:17;;;;;;;0.30;0.30;;;10.30;99.90;;;;;;5037093;28;20117;-88
2023/04/26 12:06:45;;;;;;;0.50;0.50;;;10.30;99.90;;;;;;5036976;28;20076;-84
2023/04/26 12:09:11;;;;;;;0.40;0.40;;;10.30;99.90;;;;;;5052974;28;20458;-85
2023/04/26 12:11:38;;;;;;;0.40;0.40;;;10.50;99.90;;;;;;5053744;28;20499;-87
2023/04/26 12:14:06;;;;;;;0.40;0.40;;;10.70;99.90;;;;;;5052780;28;20050;-88
2023/04/26 12:16:35;;;;;;;0.95;0.95;;;10.90;99.90;;;;;;5037300;28;20133;-80
2023/04/26 12:19:04;;;;;;;0.40;0.40;;;10.80;99.90;;;;;;5035279;28;20368;-83
2023/04/26 12:21:42;;;;;;;0.47;0.47;;;10.60;99.90;;;;;;5036447;28;20061;-84
2023/04/26 12:24:31;;;;;;;0.40;0.40;;;10.70;99.90;;;;;;5053282;28;20191;-88
2023/04/26 12:26:57;;;;;;;0.30;0.30;;;10.70;99.90;;;;;;5020146;28;20053;-87
2023/04/26 12:29:23;;;;;;;0.40;0.40;;;10.80;99.90;;;;;;5053229;28;20421;-87
2023/04/26 12:31:49;;;;;;;0.73;0.73;;;10.80;99.90;;;;;;5020213;28;20045;-84
2023/04/26 12:34:15;;;;;;;0.70;0.70;;;10.70;99.90;;;;;;5036132;28;20060;-87
2023/04/26 12:36:43;;;;;;;0.50;0.50;;;10.50;99.90;;;;;;5036781;28;20445;-86
2023/04/26 12:39:12;;;;;;;0.40;0.40;;;10.30;99.90;;;;;;5035651;28;20464;-88
2023/04/26 12:41:38;;;;;;;0.40;0.40;;;10.10;99.90;;;;;;5035944;28;20047;-87
2023/04/26 12:44:04;;;;;;;0.40;0.40;;;10.00;99.90;;;;;;5036157;28;20080;-85
2023/04/26 12:46:30;;;;;;;0.30;0.30;;;10.00;99.90;;;;;;5036781;28;20485;-84
2023/04/26 12:48:56;;;;;;;0.35;0.35;;;10.00;99.90;;;;;;5035332;28;20468;-82
2023/04/26 12:51:21;;;;;;;0.38;0.38;;;9.90;99.90;;;;;;5033813;28;20056;-86
2023/04/26 12:53:47;;;;;;;0.50;0.50;;;9.90;99.90;;;;;;5052165;28;20492;-84
2023/04/26 12:56:15;;;;;;;0.50;0.50;;;9.90;99.90;;;;;;5035196;28;20110;-87
2023/04/26 12:58:40;;;;;;;0.50;0.50;;;9.90;99.90;;;;;;5003032;28;20061;-88